Time;durP1;ratioP1;P1;durP2;ratioP2;P2;SDS_P1;SDS_P2;PMS_P1;PMS_P2;Temp;Humidity;BMP_temperature;BMP_pressure;BME280_temperature;BME280_humidity;BME280_pressure;Samples;Min_cycle;Max_cycle;Signal;HPM_P1;HPM_P2
2022/11/16 00:01:19;;;;;;;29.15;17.73;;;;;;;10.08;100.00;99830.69;5041952;28;20026;-81
2022/11/16 00:03:45;;;;;;;32.13;17.35;;;;;;;9.95;100.00;99798.19;5037586;28;20025;-82
2022/11/16 00:06:12;;;;;;;29.70;16.70;;;;;;;10.01;100.00;99807.56;5048814;28;20035;-82
2022/11/16 00:08:43;;;;;;;26.80;17.08;;;;;;;10.09;100.00;99823.72;5050519;28;20044;-82
2022/11/16 00:11:14;;;;;;;32.72;17.92;;;;;;;10.09;100.00;99829.78;5034097;28;20025;-81
2022/11/16 00:13:41;;;;;;;31.20;17.27;;;;;;;10.13;100.00;99829.66;5043850;28;20475;-81
2022/11/16 00:16:10;;;;;;;33.50;18.13;;;;;;;10.13;100.00;99835.72;5043261;28;20036;-81
2022/11/16 00:18:36;;;;;;;32.08;18.45;;;;;;;10.09;100.00;99834.13;5035532;28;20411;-81
2022/11/16 00:21:03;;;;;;;39.20;18.63;;;;;;;10.15;100.00;99835.66;5045585;28;20034;-81
2022/11/16 00:23:28;;;;;;;34.53;18.52;;;;;;;10.07;100.00;99820.31;5036635;28;20033;-81
2022/11/16 00:25:53;;;;;;;35.17;19.48;;;;;;;9.99;100.00;99806.75;5050973;28;20112;-81
2022/11/16 00:28:18;;;;;;;37.60;18.58;;;;;;;10.12;100.00;99833.19;5048972;28;20029;-81
2022/11/16 00:30:44;;;;;;;36.25;19.33;;;;;;;10.15;100.00;99838.28;5041832;28;20029;-81
2022/11/16 00:33:13;;;;;;;35.78;19.67;;;;;;;10.15;100.00;99833.91;5038394;28;20461;-81
2022/11/16 00:35:39;;;;;;;31.70;19.55;;;;;;;10.09;100.00;99811.53;5040352;28;20029;-82
2022/11/16 00:38:05;;;;;;;34.97;19.25;;;;;;;10.11;100.00;99811.50;5039430;28;20021;-81
2022/11/16 00:40:30;;;;;;;36.05;19.90;;;;;;;10.10;100.00;99796.75;5053727;28;20021;-81
2022/11/16 00:42:55;;;;;;;31.73;19.55;;;;;;;10.06;100.00;99792.59;5052533;28;20029;-81
2022/11/16 00:45:21;;;;;;;40.22;19.70;;;;;;;10.05;100.00;99776.13;5051398;28;20033;-81
2022/11/16 00:47:46;;;;;;;34.53;18.88;;;;;;;10.12;100.00;99786.31;5045006;28;20026;-81
2022/11/16 00:50:11;;;;;;;32.72;18.88;;;;;;;10.04;100.00;99784.00;5041407;28;20025;-81
2022/11/16 00:52:36;;;;;;;31.55;18.42;;;;;;;10.13;100.00;99816.63;5037726;28;20480;-81
2022/11/16 00:55:02;;;;;;;37.38;19.77;;;;;;;10.08;100.00;99814.22;5055437;28;20014;-81
2022/11/16 00:57:27;;;;;;;46.20;19.88;;;;;;;9.96;100.00;99797.28;5052950;28;20028;-81
2022/11/16 00:59:52;;;;;;;36.50;18.65;;;;;;;10.12;100.00;99825.38;5051530;28;20028;-81
2022/11/16 01:02:18;;;;;;;34.90;17.92;;;;;;;10.03;100.00;99792.69;5051353;28;20032;-80
2022/11/16 01:04:45;;;;;;;32.00;17.73;;;;;;;10.02;100.00;99798.81;5036670;28;20014;-80
2022/11/16 01:07:16;;;;;;;38.28;18.58;;;;;;;9.80;100.00;99751.91;5046245;28;20031;-80
2022/11/16 01:09:42;;;;;;;32.15;17.75;;;;;;;10.12;100.00;99812.34;5048099;28;20033;-80
2022/11/16 01:12:08;;;;;;;39.35;18.67;;;;;;;10.13;100.00;99794.03;5049880;28;20056;-80
2022/11/16 01:14:45;;;;;;;38.20;19.33;;;;;;;10.04;100.00;99778.78;5052694;28;20037;-80
2022/11/16 01:17:11;;;;;;;33.55;17.52;;;;;;;10.04;100.00;99778.78;5036422;28;20053;-80
2022/11/16 01:19:37;;;;;;;31.55;16.83;;;;;;;10.11;100.00;99789.81;5046081;28;20166;-80
2022/11/16 01:22:03;;;;;;;36.85;18.55;;;;;;;10.12;100.00;99786.31;5041087;28;20033;-80
2022/11/16 01:24:28;;;;;;;35.28;17.65;;;;;;;10.15;100.00;99791.41;5043146;28;20507;-80
2022/11/16 01:26:57;;;;;;;34.67;17.38;;;;;;;10.06;100.00;99772.59;5034278;28;20021;-80
2022/11/16 01:29:27;;;;;;;31.90;16.80;;;;;;;10.14;100.00;99784.50;5049047;28;20029;-80
2022/11/16 01:31:53;;;;;;;29.02;16.42;;;;;;;10.03;100.00;99772.72;5045824;28;20037;-80
2022/11/16 01:34:18;;;;;;;29.63;16.77;;;;;;;10.08;100.00;99776.00;5052083;28;20029;-80
2022/11/16 01:36:43;;;;;;;35.75;16.77;;;;;;;10.03;100.00;99764.91;5040817;28;20087;-80
2022/11/16 01:39:11;;;;;;;36.63;17.35;;;;;;;10.14;100.00;99787.94;5043894;28;20025;-80
2022/11/16 01:41:36;;;;;;;30.48;16.33;;;;;;;10.15;100.00;99776.59;5042458;28;20039;-80
2022/11/16 01:44:13;;;;;;;38.90;18.23;;;;;;;10.17;100.00;99780.03;5035466;28;20021;-79
2022/11/16 01:46:39;;;;;;;30.98;16.65;;;;;;;10.14;100.00;99772.31;5038748;28;20068;-80
2022/11/16 01:49:13;;;;;;;31.13;17.58;;;;;;;10.13;100.00;99767.16;5042405;28;20032;-79
2022/11/16 01:51:43;;;;;;;35.30;17.23;;;;;;;10.17;100.00;99774.81;5052170;28;20028;-79
2022/11/16 01:54:12;;;;;;;36.67;17.98;;;;;;;10.22;100.00;99769.41;5046039;28;20124;-79
2022/11/16 01:56:38;;;;;;;34.30;18.35;;;;;;;10.19;100.00;99772.13;5033780;28;20021;-79
2022/11/16 01:59:04;;;;;;;36.38;17.83;;;;;;;10.18;100.00;99768.69;5040830;28;20052;-79
2022/11/16 02:01:29;;;;;;;38.72;18.90;;;;;;;10.20;100.00;99769.47;5041991;28;20428;-79
2022/11/16 02:03:55;;;;;;;34.20;18.65;;;;;;;10.26;100.00;99778.81;5033695;28;20492;-79
2022/11/16 02:06:25;;;;;;;36.30;18.20;;;;;;;10.26;100.00;99779.66;5053026;28;20079;-79
2022/11/16 02:11:57;;;;;;;40.70;18.65;;;;;;;10.25;100.00;99767.53;5034361;28;20048;-79
2022/11/16 02:14:46;;;;;;;37.22;18.17;;;;;;;10.24;100.00;99763.25;5045409;28;20465;-79
2022/11/16 02:17:47;;;;;;;41.53;19.10;;;;;;;10.25;100.00;99762.31;5036517;28;20037;-79
2022/11/16 02:20:43;;;;;;;41.55;18.92;;;;;;;10.27;100.00;99762.31;5040566;28;20074;-79
2022/11/16 02:23:44;;;;;;;46.33;19.17;;;;;;;10.27;100.00;99770.13;5036727;28;20025;-79
2022/11/16 02:26:44;;;;;;;35.22;18.15;;;;;;;10.25;100.00;99766.69;5039501;28;20056;-80
2022/11/16 02:29:19;;;;;;;33.88;18.08;;;;;;;10.26;100.00;99761.44;5051155;28;20028;-81
2022/11/16 02:32:09;;;;;;;46.33;18.08;;;;;;;10.28;100.00;99759.63;5046881;28;20039;-82
2022/11/16 02:34:41;;;;;;;46.90;18.75;;;;;;;10.27;100.00;99757.94;5039110;28;20119;-82
2022/11/16 02:37:09;;;;;;;39.80;17.95;;;;;;;10.27;100.00;99765.75;5032837;28;20029;-81
2022/11/16 02:39:38;;;;;;;36.80;17.85;;;;;;;10.30;100.00;99770.00;5045199;28;20036;-81
2022/11/16 02:42:08;;;;;;;34.65;17.40;;;;;;;10.20;100.00;99761.66;5042014;28;20017;-80
2022/11/16 02:44:38;;;;;;;44.15;18.45;;;;;;;10.19;100.00;99754.75;5038426;28;20088;-80
2022/11/16 02:47:08;;;;;;;37.00;18.13;;;;;;;10.24;100.00;99772.81;5052759;28;20023;-80
2022/11/16 02:49:39;;;;;;;32.25;17.73;;;;;;;10.23;100.00;99778.91;5050040;28;20060;-80
2022/11/16 02:52:04;;;;;;;33.42;17.08;;;;;;;10.21;100.00;99781.59;5040014;28;20037;-80
2022/11/16 02:54:30;;;;;;;33.88;16.90;;;;;;;10.19;100.00;99785.16;5045308;28;20103;-80
2022/11/16 02:57:01;;;;;;;37.08;17.48;;;;;;;10.18;100.00;99783.47;5047528;28;20028;-80
2022/11/16 02:59:32;;;;;;;33.15;17.00;;;;;;;10.12;100.00;99781.09;5051692;28;20033;-80
2022/11/16 03:02:28;;;;;;;24.80;13.57;;;;;;;10.12;100.00;99779.34;5051332;28;20029;-80
2022/11/16 03:05:42;;;;;;;23.52;14.23;;;;;;;9.99;100.00;99755.50;5050975;28;20036;-80
2022/11/16 03:08:15;;;;;;;18.98;10.85;;;;;;;10.02;100.00;99780.59;4971067;28;20091;-80
2022/11/16 03:13:32;;;;;;;17.13;10.13;;;;;;;9.92;100.00;99782.69;5041408;28;20515;-80
2022/11/16 03:16:02;;;;;;;20.40;9.77;;;;;;;9.86;100.00;99777.72;5045318;28;20024;-79
2022/11/16 03:18:33;;;;;;;15.00;9.20;;;;;;;9.83;100.00;99781.28;5053880;28;20552;-79
2022/11/16 03:21:08;;;;;;;14.30;8.00;;;;;;;9.80;100.00;99780.53;5032441;28;20021;-79
2022/11/16 03:23:34;;;;;;;14.68;7.68;;;;;;;9.61;100.00;99759.53;5043280;28;20100;-79
2022/11/16 03:26:16;;;;;;;16.02;7.57;;;;;;;9.72;100.00;99783.44;5047428;28;20553;-80
2022/11/16 03:28:54;;;;;;;12.77;6.82;;;;;;;9.66;100.00;99782.81;5038460;28;20434;-79
2022/11/16 03:31:43;;;;;;;10.45;6.97;;;;;;;9.66;100.00;99788.88;5035956;28;20052;-80
2022/11/16 03:34:23;;;;;;;10.90;6.65;;;;;;;9.56;100.00;99788.34;5048965;28;20036;-79
2022/11/16 03:36:51;;;;;;;12.82;7.03;;;;;;;9.52;100.00;99783.31;5043625;28;20059;-80
2022/11/16 03:39:22;;;;;;;13.90;6.88;;;;;;;9.59;100.00;99803.00;5049599;28;20041;-80
2022/11/16 03:41:49;;;;;;;15.15;6.90;;;;;;;9.55;100.00;99796.22;5039139;28;20064;-80
2022/11/16 03:44:19;;;;;;;13.10;7.30;;;;;;;9.49;100.00;99796.44;5032774;28;20038;-80
2022/11/16 03:46:45;;;;;;;14.98;8.07;;;;;;;9.49;100.00;99805.09;5044477;28;20018;-80
2022/11/16 03:49:11;;;;;;;14.27;7.57;;;;;;;9.47;100.00;99808.63;5034281;28;20032;-79
2022/11/16 03:51:36;;;;;;;15.25;8.10;;;;;;;9.38;100.00;99802.00;5034232;28;20021;-79
2022/11/16 03:54:02;;;;;;;16.50;7.82;;;;;;;9.40;100.00;99810.59;5049012;28;21487;-80
2022/11/16 03:56:27;;;;;;;18.05;7.72;;;;;;;9.41;100.00;99819.25;5037080;28;20029;-80
2022/11/16 03:58:53;;;;;;;16.85;8.10;;;;;;;9.32;100.00;99816.09;5040839;28;20090;-79
2022/11/16 04:01:18;;;;;;;11.38;7.28;;;;;;;9.28;100.00;99824.03;5046730;28;20031;-79
2022/11/16 04:03:43;;;;;;;10.98;6.45;;;;;;;9.28;100.00;99818.81;5037501;28;20040;-80
2022/11/16 04:25:53;;;;;;;14.80;5.72;;;;;;;9.14;100.00;99838.34;5048069;28;20091;-79
2022/11/16 04:28:23;;;;;;;11.38;5.40;;;;;;;9.12;100.00;99841.91;5039550;28;20040;-79
2022/11/16 04:39:04;;;;;;;13.05;6.40;;;;;;;8.96;100.00;99844.19;5046228;28;20537;-79
2022/11/16 04:44:14;;;;;;;12.50;6.28;;;;;;;8.85;100.00;99833.25;5053003;28;20060;-79
2022/11/16 04:49:24;;;;;;;9.88;6.18;;;;;;;8.72;100.00;99845.81;5041563;28;20076;-79
2022/11/16 04:51:49;;;;;;;9.88;6.53;;;;;;;8.78;100.00;99860.34;5047278;28;20087;-79
2022/11/16 04:54:14;;;;;;;14.05;7.25;;;;;;;8.62;100.00;99842.63;5053713;28;20052;-79
2022/11/16 04:56:40;;;;;;;11.73;7.05;;;;;;;8.71;100.00;99864.06;5052194;28;20025;-79
2022/11/16 04:59:05;;;;;;;16.85;7.47;;;;;;;8.67;100.00;99865.91;5047307;28;20499;-79
2022/11/16 05:04:14;;;;;;;15.80;7.80;;;;;;;8.66;100.00;99870.25;5051265;28;20095;-79
2022/11/16 05:06:40;;;;;;;14.05;7.38;;;;;;;8.64;100.00;99879.84;5052076;28;20025;-79
2022/11/16 05:09:05;;;;;;;18.23;7.43;;;;;;;8.62;100.00;99865.19;5044342;28;20030;-79
2022/11/16 05:11:31;;;;;;;12.73;7.15;;;;;;;8.53;100.00;99863.69;5045508;28;20384;-79
2022/11/16 05:13:56;;;;;;;20.25;7.07;;;;;;;8.32;100.00;99827.97;5042192;28;20029;-79
2022/11/16 05:16:21;;;;;;;16.75;7.15;;;;;;;8.35;100.00;99848.66;5054903;28;20036;-79
2022/11/16 05:20:59;;;;;;;17.17;6.43;;;;;;;8.26;100.00;99838.53;5050846;28;20468;-79
2022/11/16 05:21:35;;;;;;;14.88;6.75;;;;;;;8.21;100.00;99843.88;5043928;28;20468;-79
2022/11/16 05:26:44;;;;;;;16.52;6.97;;;;;;;8.26;100.00;99874.91;5034928;28;20107;-79
2022/11/16 05:29:10;;;;;;;18.88;7.07;;;;;;;8.09;100.00;99855.47;5046220;28;20419;-79
2022/11/16 05:31:35;;;;;;;13.70;6.82;;;;;;;8.07;100.00;99862.44;5043076;28;20049;-79
2022/11/16 05:34:00;;;;;;;15.38;7.20;;;;;;;8.04;100.00;99859.94;5044308;28;20410;-79
2022/11/16 05:36:25;;;;;;;13.52;6.88;;;;;;;7.76;100.00;99820.13;5037193;28;20033;-79
2022/11/16 05:38:51;;;;;;;15.23;6.50;;;;;;;7.92;100.00;99858.56;5049528;28;20021;-79
2022/11/16 05:41:16;;;;;;;13.68;6.72;;;;;;;7.78;100.00;99845.09;5037607;28;20132;-79
2022/11/16 05:43:42;;;;;;;15.00;7.18;;;;;;;7.78;100.00;99867.59;5038606;28;20033;-79
2022/11/16 05:46:07;;;;;;;19.42;7.13;;;;;;;7.54;100.00;99832.81;5046247;28;20024;-79
2022/11/16 05:48:32;;;;;;;14.45;6.95;;;;;;;7.63;100.00;99869.72;5052406;28;20535;-79
2022/11/16 05:50:59;;;;;;;12.90;6.85;;;;;;;7.62;100.00;99875.81;5053049;28;20107;-79
2022/11/16 05:53:24;;;;;;;14.70;7.57;;;;;;;7.60;100.00;99882.78;5041392;28;20041;-79
2022/11/16 05:55:49;;;;;;;16.55;7.65;;;;;;;7.49;100.00;99880.47;5048835;28;20033;-79
2022/11/16 05:58:15;;;;;;;16.95;7.75;;;;;;;7.47;100.00;99871.03;5042818;28;20021;-79
2022/11/16 06:00:40;;;;;;;15.05;7.25;;;;;;;7.53;100.00;99898.56;5037036;28;20017;-79
2022/11/16 06:03:05;;;;;;;18.65;7.78;;;;;;;7.41;100.00;99878.97;5045955;28;20024;-79
2022/11/16 06:05:33;;;;;;;15.65;8.35;;;;;;;7.35;100.00;99882.56;5045854;28;20043;-79
2022/11/16 06:07:58;;;;;;;15.82;8.32;;;;;;;7.37;100.00;99887.72;5039076;28;20110;-79
2022/11/16 06:10:24;;;;;;;16.25;8.00;;;;;;;7.37;100.00;99891.16;5049057;28;20053;-79
2022/11/16 06:12:49;;;;;;;19.75;8.13;;;;;;;7.35;100.00;99898.13;5048485;28;20025;-79
2022/11/16 06:15:15;;;;;;;15.13;8.07;;;;;;;7.32;100.00;99889.56;5050006;28;20033;-79
2022/11/16 06:17:40;;;;;;;14.85;8.15;;;;;;;7.28;100.00;99892.22;5036514;28;20017;-79
2022/11/16 06:20:06;;;;;;;16.73;8.48;;;;;;;7.28;100.00;99902.59;5047783;28;20071;-79
2022/11/16 06:22:32;;;;;;;23.33;8.65;;;;;;;7.22;100.00;99899.31;5038724;28;20048;-79
2022/11/16 06:24:57;;;;;;;17.98;8.32;;;;;;;7.25;100.00;99907.88;5049809;28;20053;-79
2022/11/16 06:27:22;;;;;;;19.25;8.35;;;;;;;7.22;100.00;99915.72;5038762;28;20125;-79
2022/11/16 06:29:47;;;;;;;20.10;8.27;;;;;;;7.10;100.00;99903.06;5045548;28;20025;-79
2022/11/16 06:32:13;;;;;;;21.10;8.32;;;;;;;7.11;100.00;99909.94;5032922;28;20461;-79
2022/11/16 06:34:38;;;;;;;18.88;8.02;;;;;;;7.06;100.00;99911.78;5033683;28;20021;-79
2022/11/16 06:37:04;;;;;;;15.02;7.70;;;;;;;7.12;100.00;99929.78;5039141;28;20377;-79
2022/11/16 06:39:29;;;;;;;15.73;7.78;;;;;;;7.03;100.00;99914.47;5049283;28;20400;-79
2022/11/16 06:41:55;;;;;;;21.63;7.68;;;;;;;7.08;100.00;99928.16;5040138;28;20029;-79
2022/11/16 06:44:20;;;;;;;17.45;7.75;;;;;;;7.03;100.00;99922.25;5049462;28;20123;-79
2022/11/16 06:46:45;;;;;;;20.10;7.78;;;;;;;6.86;100.00;99890.69;5034313;28;20037;-79
2022/11/16 06:49:11;;;;;;;23.02;7.93;;;;;;;6.97;100.00;99922.41;5042906;28;20018;-79
2022/11/16 06:51:36;;;;;;;15.75;7.55;;;;;;;7.00;100.00;99927.50;5037910;28;20489;-79
2022/11/16 06:54:01;;;;;;;20.65;7.78;;;;;;;6.92;100.00;99921.63;5042437;28;20037;-79
2022/11/16 06:56:27;;;;;;;15.82;7.45;;;;;;;6.95;100.00;99942.28;5045822;28;20025;-79
2022/11/16 06:58:55;;;;;;;19.30;7.93;;;;;;;6.98;100.00;99939.63;5042410;28;20441;-79
2022/11/16 07:01:20;;;;;;;21.52;7.88;;;;;;;6.83;100.00;99927.03;5044848;28;20056;-79
2022/11/16 07:03:46;;;;;;;18.55;7.68;;;;;;;6.85;100.00;99933.03;5049097;28;20072;-79
2022/11/16 07:06:12;;;;;;;19.42;8.63;;;;;;;6.84;100.00;99942.56;5051880;28;20530;-79
2022/11/16 07:08:38;;;;;;;22.30;8.32;;;;;;;6.69;100.00;99914.38;5042297;28;20071;-79
2022/11/16 07:11:05;;;;;;;21.60;8.43;;;;;;;6.81;100.00;99940.03;5046800;28;20520;-79
2022/11/16 07:13:31;;;;;;;25.83;9.00;;;;;;;6.71;100.00;99929.00;5038904;28;20023;-79
2022/11/16 07:16:05;;;;;;;15.65;8.50;;;;;;;6.85;100.00;99958.94;5038496;28;20526;-79
2022/11/16 07:18:35;;;;;;;21.05;8.70;;;;;;;6.86;100.00;99963.22;5052101;28;20062;-79
2022/11/16 07:21:10;;;;;;;23.95;10.00;;;;;;;6.88;100.00;99959.72;5052768;28;20067;-79
2022/11/16 07:23:36;;;;;;;32.65;12.18;;;;;;;6.75;100.00;99938.41;5050318;28;20020;-79
2022/11/16 07:26:03;;;;;;;30.90;13.00;;;;;;;6.93;100.00;99963.06;5035996;28;20040;-79
2022/11/16 07:28:28;;;;;;;38.10;13.00;;;;;;;6.86;100.00;99951.13;5040878;28;20039;-79
2022/11/16 07:31:01;;;;;;;41.85;14.35;;;;;;;6.86;100.00;99952.88;5037737;28;20025;-78
2022/11/16 07:33:26;;;;;;;35.08;13.63;;;;;;;6.96;100.00;99975.09;5033422;28;20469;-78
2022/11/16 07:35:52;;;;;;;39.92;13.23;;;;;;;6.79;100.00;99947.81;5040421;28;20055;-78
2022/11/16 07:38:17;;;;;;;33.30;13.05;;;;;;;6.92;100.00;99971.72;5044778;28;20041;-78
2022/11/16 07:40:44;;;;;;;35.33;14.55;;;;;;;6.77;100.00;99944.44;5032067;28;20100;-78
2022/11/16 07:43:10;;;;;;;35.15;13.85;;;;;;;6.89;100.00;99963.16;5032239;28;20051;-78
2022/11/16 07:45:35;;;;;;;36.65;14.18;;;;;;;6.96;100.00;99973.34;5045198;28;20017;-79
2022/11/16 07:48:00;;;;;;;44.85;14.98;;;;;;;7.00;100.00;99971.56;5038028;28;20029;-78
2022/11/16 07:50:26;;;;;;;38.05;14.00;;;;;;;6.99;100.00;99977.63;5052288;28;20051;-78
2022/11/16 07:52:51;;;;;;;30.13;12.98;;;;;;;7.00;100.00;99980.19;5048037;28;20128;-78
2022/11/16 07:55:16;;;;;;;41.38;13.75;;;;;;;7.00;100.00;99982.78;5042703;28;20544;-78
2022/11/16 07:57:41;;;;;;;39.97;13.68;;;;;;;7.06;100.00;99989.53;5044208;28;20044;-78
2022/11/16 08:00:07;;;;;;;42.88;14.25;;;;;;;7.06;100.00;99994.72;5034727;28;20044;-78
2022/11/16 08:02:33;;;;;;;40.38;13.13;;;;;;;6.97;100.00;99979.41;5031933;28;20503;-78
2022/11/16 08:04:58;;;;;;;31.70;13.00;;;;;;;7.01;100.00;99987.06;5038385;28;20123;-78
2022/11/16 08:07:23;;;;;;;33.22;11.82;;;;;;;7.07;100.00;99996.44;5049523;28;20025;-78
2022/11/16 08:09:48;;;;;;;38.38;11.57;;;;;;;6.94;100.00;99966.50;5039519;28;20021;-78
2022/11/16 08:12:15;;;;;;;38.65;11.10;;;;;;;7.13;100.00;99998.03;5031846;28;20131;-78
2022/11/16 08:14:40;;;;;;;32.83;10.52;;;;;;;7.16;100.00;99997.97;5040191;28;20465;-78
2022/11/16 08:17:07;;;;;;;35.83;10.57;;;;;;;7.17;100.00;99991.91;5037433;28;20108;-78
2022/11/16 08:19:33;;;;;;;31.05;9.82;;;;;;;7.20;100.00;100008.25;5041016;28;20016;-78
2022/11/16 08:21:58;;;;;;;19.73;8.85;;;;;;;7.16;100.00;99988.47;5049240;28;20127;-78
2022/11/16 08:24:24;;;;;;;25.73;9.07;;;;;;;7.23;100.00;100003.00;5042834;28;20022;-78
2022/11/16 08:26:49;;;;;;;24.15;8.80;;;;;;;7.23;100.00;100002.13;5031696;28;20029;-78
2022/11/16 08:29:14;;;;;;;27.50;8.55;;;;;;;7.27;100.00;100008.94;5045597;28;20473;-78
2022/11/16 08:31:43;;;;;;;27.88;9.25;;;;;;;7.22;100.00;99987.44;5036739;28;20028;-78
2022/11/16 08:34:08;;;;;;;29.35;8.20;;;;;;;7.29;100.00;99986.41;5038540;28;20025;-78
2022/11/16 08:36:33;;;;;;;20.50;8.73;;;;;;;7.35;100.00;99995.78;5044702;28;20369;-78
2022/11/16 08:38:59;;;;;;;30.17;9.15;;;;;;;7.37;100.00;99983.66;5050319;28;20064;-80
2022/11/16 08:41:24;;;;;;;25.75;8.88;;;;;;;7.47;100.00;99995.50;5049007;28;20056;-80
2022/11/16 08:43:49;;;;;;;26.10;8.63;;;;;;;7.46;100.00;99991.22;5046663;28;20487;-79
2022/11/16 08:46:16;;;;;;;22.20;8.35;;;;;;;7.46;100.00;99994.66;5040451;28;20032;-82
2022/11/16 08:48:41;;;;;;;25.35;8.25;;;;;;;7.46;100.00;100006.78;5044644;28;20021;-80
2022/11/16 08:51:12;;;;;;;26.58;8.68;;;;;;;7.47;100.00;100008.47;5040937;28;20036;-79
2022/11/16 08:53:37;;;;;;;19.73;8.18;;;;;;;7.44;100.00;100003.38;5046145;28;20036;-79
2022/11/16 08:56:12;;;;;;;23.00;8.10;;;;;;;7.53;100.00;100015.28;5052474;28;20032;-79
2022/11/16 08:58:38;;;;;;;28.30;8.15;;;;;;;7.47;100.00;100005.88;5050065;28;20369;-79
2022/11/16 09:01:12;;;;;;;23.55;7.07;;;;;;;7.56;100.00;100010.00;5041477;28;20022;-79
2022/11/16 09:03:38;;;;;;;30.10;7.85;;;;;;;7.51;100.00;99999.72;5036339;28;20017;-79
2022/11/16 09:06:04;;;;;;;22.98;7.97;;;;;;;7.44;100.00;99991.25;5035064;28;20120;-79
2022/11/16 09:08:30;;;;;;;24.15;7.95;;;;;;;7.54;100.00;100007.44;5035951;28;20025;-79
2022/11/16 09:10:56;;;;;;;17.75;7.25;;;;;;;7.55;100.00;100001.34;5044399;28;20480;-77
2022/11/16 09:13:21;;;;;;;25.17;7.63;;;;;;;7.61;100.00;100019.38;5051671;28;20031;-77
2022/11/16 09:15:46;;;;;;;22.25;7.32;;;;;;;7.63;100.00;100014.16;5049114;28;20420;-77
2022/11/16 09:18:12;;;;;;;27.48;7.30;;;;;;;7.57;100.00;100004.78;5046242;28;20017;-78
2022/11/16 09:20:42;;;;;;;22.60;7.20;;;;;;;7.61;100.00;100008.97;5042330;28;20586;-78
2022/11/16 09:23:07;;;;;;;22.23;6.38;;;;;;;7.58;100.00;100009.06;5036637;28;20022;-76
2022/11/16 09:25:33;;;;;;;27.00;6.93;;;;;;;7.67;100.00;100016.63;5041540;28;20096;-76
2022/11/16 09:27:58;;;;;;;24.77;6.75;;;;;;;7.66;100.00;100009.75;5038644;28;20464;-78
2022/11/16 09:30:23;;;;;;;19.20;6.60;;;;;;;7.74;100.00;100025.94;5043824;28;20029;-77
2022/11/16 09:32:49;;;;;;;26.23;6.60;;;;;;;7.77;100.00;100019.00;5047883;28;20025;-77
2022/11/16 09:35:16;;;;;;;29.95;7.03;;;;;;;7.78;100.00;100015.50;5042906;28;20051;-77
2022/11/16 09:37:41;;;;;;;15.70;6.18;;;;;;;7.80;100.00;100016.31;5040538;28;20014;-77
2022/11/16 09:40:07;;;;;;;26.42;6.88;;;;;;;7.81;100.00;100028.41;5034095;28;20530;-78
2022/11/16 09:42:45;;;;;;;27.08;6.60;;;;;;;7.81;100.00;100012.81;5048524;28;20075;-77
2022/11/16 09:45:31;;;;;;;26.73;7.13;;;;;;;7.87;100.00;100016.13;5034324;28;20017;-77
2022/11/16 09:48:01;;;;;;;24.27;6.40;;;;;;;7.92;100.00;100024.66;5035982;28;20043;-77
2022/11/16 09:50:48;;;;;;;19.40;6.20;;;;;;;7.94;100.00;100024.59;5041482;28;20523;-78
2022/11/16 09:53:25;;;;;;;23.95;6.32;;;;;;;7.96;100.00;100028.03;5051835;28;20084;-78
2022/11/16 09:55:57;;;;;;;25.02;6.22;;;;;;;7.96;100.00;100031.47;5044530;28;20025;-77
2022/11/16 09:58:37;;;;;;;17.58;5.47;;;;;;;7.96;100.00;100028.88;5045407;28;20028;-78
2022/11/16 10:01:14;;;;;;;18.15;5.50;;;;;;;7.86;100.00;100013.56;5033846;28;20575;-78
2022/11/16 10:03:44;;;;;;;22.77;5.72;;;;;;;7.99;100.00;100025.34;5034369;28;20032;-77
2022/11/16 10:06:22;;;;;;;22.65;6.07;;;;;;;7.97;100.00;100020.19;5033669;28;20029;-77
2022/11/16 10:08:55;;;;;;;17.77;5.00;;;;;;;8.00;100.00;100031.38;5045677;28;20021;-77
2022/11/16 10:11:32;;;;;;;13.00;4.45;;;;;;;7.95;100.00;100023.72;5045477;28;20423;-77
2022/11/16 10:14:00;;;;;;;16.80;4.45;;;;;;;8.00;100.00;100034.81;5034086;28;20028;-77
2022/11/16 10:17:00;;;;;;;13.75;4.40;;;;;;;8.02;100.00;100027.88;5036782;28;20061;-77
2022/11/16 10:19:47;;;;;;;23.80;4.97;;;;;;;8.02;100.00;100033.06;5048439;28;20162;-77
2022/11/16 10:22:30;;;;;;;12.35;4.32;;;;;;;8.04;100.00;100031.25;5049280;28;20427;-77
2022/11/16 10:24:59;;;;;;;22.13;5.20;;;;;;;8.03;100.00;100026.13;5051475;28;20060;-77
2022/11/16 10:27:41;;;;;;;21.52;4.40;;;;;;;8.05;100.00;100013.97;5053194;28;20465;-77
2022/11/16 10:30:18;;;;;;;16.55;4.15;;;;;;;8.05;100.00;100017.41;5034671;28;20111;-77
2022/11/16 10:32:53;;;;;;;15.50;3.97;;;;;;;8.06;100.00;100021.69;5033415;28;20491;-77
2022/11/16 10:35:28;;;;;;;13.25;3.85;;;;;;;8.08;100.00;100019.91;5032587;28;20430;-76
2022/11/16 10:37:57;;;;;;;13.27;3.17;;;;;;;8.04;100.00;100018.28;5047331;28;20021;-76
2022/11/16 10:40:45;;;;;;;14.50;3.88;;;;;;;8.08;100.00;100025.13;5051650;28;20115;-77
2022/11/16 10:43:15;;;;;;;13.85;4.00;;;;;;;8.14;100.00;100030.16;5034980;28;20472;-75
2022/11/16 10:45:46;;;;;;;14.27;3.70;;;;;;;8.17;100.00;100021.41;5043023;28;20017;-76
2022/11/16 10:48:20;;;;;;;17.40;3.92;;;;;;;8.21;100.00;100025.66;5041430;28;20060;-76
2022/11/16 10:50:47;;;;;;;19.80;4.18;;;;;;;8.31;100.00;100019.31;5040852;28;20013;-76
2022/11/16 10:53:24;;;;;;;13.68;3.83;;;;;;;8.41;100.00;100006.94;5047611;28;20041;-76
2022/11/16 10:56:18;;;;;;;19.17;4.40;;;;;;;8.52;100.00;100010.09;5047764;28;20062;-78
2022/11/16 10:58:51;;;;;;;13.98;3.28;;;;;;;8.63;100.00;100015.84;5049587;28;20357;-77
2022/11/16 11:01:40;;;;;;;11.45;3.90;;;;;;;8.72;100.00;100012.09;5039874;28;20425;-78
2022/11/16 11:04:26;;;;;;;14.93;3.20;;;;;;;8.98;100.00;100008.75;5040510;28;20104;-77
2022/11/16 11:06:59;;;;;;;19.52;3.75;;;;;;;9.04;100.00;100005.13;5036223;28;20114;-78
2022/11/16 11:09:35;;;;;;;10.90;2.90;;;;;;;8.98;100.00;99993.13;5032476;28;20091;-77
2022/11/16 11:15:01;;;;;;;11.40;2.65;;;;;;;9.14;100.00;100003.94;5033094;28;20497;-78
2022/11/16 11:17:28;;;;;;;11.95;3.13;;;;;;;9.16;100.00;100006.50;5046771;28;20044;-78
2022/11/16 11:20:03;;;;;;;14.80;3.78;;;;;;;9.27;100.00;100004.41;5044595;28;20020;-78
2022/11/16 11:22:30;;;;;;;14.48;3.10;;;;;;;9.34;100.00;100005.91;5046301;28;20052;-78
2022/11/16 11:24:56;;;;;;;10.30;2.50;;;;;;;9.41;100.00;100001.34;5051947;28;20443;-77
2022/11/16 11:27:31;;;;;;;11.63;2.90;;;;;;;9.42;100.00;99995.25;5040764;28;20061;-77
2022/11/16 11:29:57;;;;;;;9.48;2.65;;;;;;;9.42;100.00;100000.44;5045358;28;20024;-77
2022/11/16 11:32:31;;;;;;;11.63;2.33;;;;;;;9.36;100.00;99994.56;5036161;28;20022;-77
2022/11/16 11:34:58;;;;;;;8.95;2.10;;;;;;;9.43;100.00;99990.00;5038273;28;20471;-77
2022/11/16 11:37:29;;;;;;;8.70;2.40;;;;;;;9.55;100.00;99986.16;5051587;28;20038;-77
2022/11/16 11:40:27;;;;;;;8.98;2.25;;;;;;;9.68;100.00;99991.78;5046641;28;20052;-77
2022/11/16 11:42:56;;;;;;;12.52;1.90;;;;;;;9.75;100.00;99985.50;5046400;28;20537;-77
2022/11/16 11:45:45;;;;;;;8.52;1.85;;;;;;;9.82;100.00;99993.03;5031565;28;20025;-77
2022/11/16 11:48:20;;;;;;;8.55;2.13;;;;;;;9.84;100.00;99985.16;5019994;28;20050;-77
2022/11/16 11:50:55;;;;;;;5.00;2.00;;;;;;;9.87;100.00;99979.84;5044019;28;20532;-77
2022/11/16 11:53:54;;;;;;;10.05;2.05;;;;;;;10.08;100.00;99978.28;5037200;28;20041;-77
2022/11/16 11:56:20;;;;;;;4.82;1.83;;;;;;;10.49;100.00;99966.38;5038184;28;20029;-77
2022/11/16 11:58:47;;;;;;;6.45;2.00;;;;;;;10.63;100.00;99947.66;5052252;28;20021;-77
2022/11/16 12:01:41;;;;;;;7.00;1.80;;;;;;;10.69;100.00;99954.38;5051774;28;20155;-77
2022/11/16 12:04:07;;;;;;;7.35;2.67;;;;;;;10.57;100.00;99957.44;5032303;28;20489;-77
2022/11/16 12:06:58;;;;;;;6.38;2.40;;;;;;;10.52;100.00;99960.22;5031248;28;20076;-77
2022/11/16 12:09:36;;;;;;;10.32;1.98;;;;;;;10.40;100.00;99942.41;4998429;28;20127;-77
2022/11/16 12:12:32;;;;;;;10.10;1.95;;;;;;;10.41;100.00;99955.41;5034770;28;20041;-77
2022/11/16 12:15:15;;;;;;;10.75;2.50;;;;;;;10.51;100.00;99946.34;5031954;28;20032;-77
2022/11/16 12:17:52;;;;;;;8.80;2.10;;;;;;;10.63;100.00;99938.97;5032498;28;20022;-76
2022/11/16 12:20:27;;;;;;;8.70;1.90;;;;;;;10.67;100.00;99930.97;5042805;28;20074;-77